Time;durP1;ratioP1;P1;durP2;ratioP2;P2;SDS_P1;SDS_P2;PMS_P1;PMS_P2;Temp;Humidity;BMP_temperature;BMP_pressure;BME280_temperature;BME280_humidity;BME280_pressure;Samples;Min_cycle;Max_cycle;Signal;HPM_P1;HPM_P2
2023/10/01 00:01:58;;;;;;;2.33;1.52;;;;;;;22.78;32.50;100887.22;4962246;28;20055;-78
2023/10/01 00:04:27;;;;;;;1.73;1.33;;;;;;;22.75;32.01;100892.56;4967014;28;20051;-77
2023/10/01 00:06:58;;;;;;;1.42;1.33;;;;;;;22.73;32.37;100884.66;4961866;28;20054;-75
2023/10/01 00:09:31;;;;;;;2.10;1.20;;;;;;;22.69;34.10;100882.97;4963536;28;20054;-75
2023/10/01 00:12:00;;;;;;;1.38;1.20;;;;;;;22.63;33.08;100885.75;4960283;28;20142;-76
2023/10/01 00:14:29;;;;;;;2.05;1.70;;;;;;;22.58;32.21;100885.81;4962481;28;20513;-76
2023/10/01 00:16:58;;;;;;;3.75;1.63;;;;;;;22.50;33.10;100886.88;4964260;28;20472;-76
2023/10/01 00:19:27;;;;;;;2.28;1.38;;;;;;;22.46;33.20;100890.44;4963160;28;20051;-77
2023/10/01 00:21:57;;;;;;;2.22;1.35;;;;;;;22.40;34.26;100888.75;4944374;28;20269;-76
2023/10/01 00:24:26;;;;;;;2.85;1.45;;;;;;;22.18;33.12;100881.19;4945007;28;20051;-76
2023/10/01 00:26:56;;;;;;;2.63;1.15;;;;;;;22.12;33.61;100878.66;4945468;28;20497;-76
2023/10/01 00:29:24;;;;;;;3.97;1.40;;;;;;;22.10;35.04;100887.47;4943133;28;20051;-76
2023/10/01 00:31:53;;;;;;;3.80;1.40;;;;;;;21.94;34.80;100885.13;4947512;28;20501;-76
2023/10/01 00:34:22;;;;;;;2.60;1.23;;;;;;;21.94;35.16;100898.28;4944895;28;20075;-77
2023/10/01 00:36:54;;;;;;;2.60;1.38;;;;;;;21.82;32.81;100893.19;4948739;28;20055;-76
2023/10/01 00:39:22;;;;;;;2.25;1.45;;;;;;;21.75;33.23;100886.25;4955456;28;20051;-77
2023/10/01 00:41:52;;;;;;;2.30;1.40;;;;;;;21.71;32.64;100895.09;4938636;28;20106;-76
2023/10/01 00:44:24;;;;;;;2.72;1.90;;;;;;;21.65;33.89;100901.34;4940538;28;20082;-76
2023/10/01 00:46:54;;;;;;;3.45;1.80;;;;;;;21.59;34.91;100903.19;4944091;28;20139;-75
2023/10/01 00:49:23;;;;;;;1.30;1.08;;;;;;;21.47;33.38;100897.19;4939381;28;20142;-74
2023/10/01 00:51:52;;;;;;;3.25;1.40;;;;;;;21.37;34.37;100895.50;4951038;28;20077;-76
2023/10/01 00:54:21;;;;;;;3.13;1.60;;;;;;;21.31;36.05;100900.88;4944333;28;20057;-77
2023/10/01 00:56:56;;;;;;;3.20;1.40;;;;;;;21.23;36.84;100898.31;4942617;28;20239;-76
2023/10/01 00:59:27;;;;;;;3.25;1.35;;;;;;;21.17;35.91;100910.72;4943808;28;20047;-76
2023/10/01 01:01:56;;;;;;;3.22;1.48;;;;;;;21.10;37.57;100902.88;4944051;28;20082;-77
2023/10/01 01:04:28;;;;;;;2.67;1.30;;;;;;;20.99;40.41;100901.25;4949696;28;20062;-78
2023/10/01 01:07:02;;;;;;;;;;;;;;;20.88;38.53;100906.63;4942572;28;20066;-77
2023/10/01 01:09:31;;;;;;;1.65;1.30;;;;;;;20.80;38.05;100896.19;4945120;28;19938;-77
2023/10/01 01:11:59;;;;;;;2.25;1.55;;;;;;;20.76;36.62;100896.25;4946249;28;20050;-77
2023/10/01 01:14:30;;;;;;;4.05;1.65;;;;;;;20.70;38.47;100897.16;4949907;28;20528;-78
2023/10/01 01:17:04;;;;;;;1.73;1.60;;;;;;;20.62;38.60;100883.25;4943415;28;20465;-77
2023/10/01 01:19:34;;;;;;;1.98;1.50;;;;;;;20.60;38.98;100896.38;4950665;28;20764;-80
2023/10/01 01:22:03;;;;;;;3.38;1.48;;;;;;;20.52;41.02;100903.44;4971091;28;20058;-77
2023/10/01 01:24:33;;;;;;;3.53;1.70;;;;;;;20.44;40.33;100900.00;4965874;28;20127;-78
2023/10/01 01:27:06;;;;;;;2.92;1.73;;;;;;;20.36;40.91;100907.09;4966813;28;20047;-79
2023/10/01 01:29:40;;;;;;;2.95;1.67;;;;;;;20.27;39.19;100903.66;4964577;28;20754;-79
2023/10/01 01:32:13;;;;;;;2.20;1.65;;;;;;;20.17;41.00;100907.22;4970614;28;20065;-79
2023/10/01 01:34:43;;;;;;;2.60;1.73;;;;;;;20.06;40.47;100911.69;4969718;28;20049;-79
2023/10/01 01:40:09;;;;;;;2.15;1.75;;;;;;;19.81;41.72;100914.50;4936082;29;20080;-82
2023/10/01 01:42:38;;;;;;;3.50;1.80;;;;;;;19.73;42.71;100916.28;4918709;29;20056;-82
2023/10/01 01:45:25;;;;;;;2.17;1.60;;;;;;;19.63;43.59;100918.06;4910858;29;20067;-80
2023/10/01 01:47:53;;;;;;;2.55;1.58;;;;;;;19.49;42.44;100914.59;4912722;29;20059;-79
2023/10/01 01:50:26;;;;;;;4.13;2.25;;;;;;;19.39;41.77;100916.41;4913035;29;20052;-79
2023/10/01 01:52:58;;;;;;;3.13;2.03;;;;;;;19.28;44.99;100918.19;4914580;29;20158;-79
2023/10/01 01:55:28;;;;;;;2.33;1.60;;;;;;;19.16;46.79;100924.38;4923873;29;20057;-77
2023/10/01 01:58:09;;;;;;;4.63;2.00;;;;;;;19.07;48.34;100927.03;4917074;29;20294;-78
2023/10/01 02:00:46;;;;;;;3.80;1.80;;;;;;;18.96;46.77;100932.28;4916680;29;20055;-77
2023/10/01 02:03:17;;;;;;;2.92;1.98;;;;;;;18.86;45.18;100935.81;4923426;29;20127;-77
2023/10/01 02:05:47;;;;;;;4.30;1.92;;;;;;;18.80;45.96;100941.06;4939776;29;20109;-78
2023/10/01 02:08:35;;;;;;;2.58;1.90;;;;;;;18.71;46.30;100930.56;4950419;29;20051;-79
2023/10/01 02:11:09;;;;;;;3.38;1.90;;;;;;;18.66;44.10;100933.19;4947786;28;20093;-77
2023/10/01 02:13:40;;;;;;;2.72;1.90;;;;;;;18.58;43.90;100932.31;4966414;28;20556;-79
2023/10/01 02:19:11;;;;;;;3.25;1.85;;;;;;;18.45;44.15;100933.19;4956771;28;20074;-78
2023/10/01 02:22:00;;;;;;;3.53;1.67;;;;;;;18.39;44.46;100934.06;4971186;28;20473;-78
2023/10/01 02:24:44;;;;;;;3.05;1.70;;;;;;;18.32;44.83;100927.94;4966175;28;20146;-78
2023/10/01 02:27:20;;;;;;;5.00;1.85;;;;;;;18.26;49.58;100933.19;4963195;28;20101;-80
2023/10/01 02:32:49;;;;;;;3.08;1.73;;;;;;;18.05;47.92;100944.53;4965630;28;20059;-78
2023/10/01 02:35:36;;;;;;;2.58;1.67;;;;;;;17.97;48.93;100954.97;4971162;28;20521;-78
2023/10/01 02:38:06;;;;;;;7.32;1.63;;;;;;;17.86;51.76;100954.06;4978421;28;20051;-81
2023/10/01 02:40:40;;;;;;;8.75;1.70;;;;;;;17.75;51.73;100956.63;4975402;28;20066;-80
2023/10/01 02:43:13;;;;;;;3.15;2.00;;;;;;;17.64;49.54;100958.34;4976700;28;20079;-80
2023/10/01 02:45:42;;;;;;;3.67;1.85;;;;;;;17.54;50.12;100961.75;4978807;28;20086;-81
2023/10/01 02:48:17;;;;;;;2.28;1.52;;;;;;;17.51;50.15;100967.88;4972882;28;20148;-79
2023/10/01 02:50:48;;;;;;;2.20;1.38;;;;;;;17.40;49.04;100974.78;4974743;28;20047;-80
2023/10/01 02:53:20;;;;;;;2.53;1.30;;;;;;;17.32;49.80;100966.91;4968573;28;20043;-80
2023/10/01 02:55:48;;;;;;;4.53;1.58;;;;;;;17.24;49.57;100973.81;4976222;28;20070;-79
2023/10/01 02:58:27;;;;;;;3.28;1.83;;;;;;;17.21;49.69;100978.19;4978519;28;20053;-80
2023/10/01 03:00:55;;;;;;;2.30;1.75;;;;;;;17.17;52.08;100983.38;4975965;28;20051;-80
2023/10/01 03:03:32;;;;;;;6.22;1.70;;;;;;;17.14;51.66;100969.44;4975311;28;20047;-79
2023/10/01 03:06:08;;;;;;;3.85;1.35;;;;;;;17.08;54.31;100983.31;4974128;28;20057;-79
2023/10/01 03:11:37;;;;;;;3.25;1.98;;;;;;;16.92;53.26;100992.78;4974119;28;20047;-79
2023/10/01 03:14:20;;;;;;;4.80;1.73;;;;;;;16.83;53.45;100990.09;4979620;28;20047;-79
2023/10/01 03:16:53;;;;;;;2.92;1.88;;;;;;;16.75;57.54;101004.84;4976309;28;20051;-81
2023/10/01 03:19:26;;;;;;;4.15;1.77;;;;;;;16.61;56.05;101006.47;4980187;28;20162;-80
2023/10/01 03:22:15;;;;;;;2.42;1.73;;;;;;;16.50;57.09;101004.63;4982302;28;20118;-81
2023/10/01 03:24:46;;;;;;;4.70;2.20;;;;;;;16.43;57.60;101012.41;4977635;28;20057;-80
2023/10/01 03:27:27;;;;;;;2.97;1.90;;;;;;;16.37;59.14;101013.19;4979380;28;20332;-78
2023/10/01 03:30:05;;;;;;;4.65;1.80;;;;;;;16.30;60.23;101014.00;4977032;28;20066;-79
2023/10/01 03:32:34;;;;;;;3.22;1.73;;;;;;;16.27;62.08;101019.19;4966944;28;20066;-80
2023/10/01 03:35:12;;;;;;;6.38;1.75;;;;;;;16.20;61.33;101015.66;4976767;28;20046;-80
2023/10/01 03:37:44;;;;;;;3.55;2.20;;;;;;;16.18;60.09;101025.19;4975907;28;20062;-81
2023/10/01 03:40:22;;;;;;;3.13;1.98;;;;;;;16.13;59.68;101019.06;4982934;28;20693;-81
2023/10/01 03:42:52;;;;;;;5.80;2.28;;;;;;;16.09;57.85;101023.34;4972877;28;20051;-79
2023/10/01 03:48:19;;;;;;;3.03;2.08;;;;;;;16.02;57.83;101031.97;5040358;23;20050;-82
2023/10/01 03:50:47;;;;;;;3.35;2.03;;;;;;;15.98;58.37;101031.91;4969430;28;20581;-84
2023/10/01 03:53:18;;;;;;;5.25;2.42;;;;;;;15.96;59.68;101031.03;4971628;28;20106;-81
2023/10/01 03:55:55;;;;;;;6.15;2.38;;;;;;;15.92;60.07;101030.13;4967783;28;20070;-84
2023/10/01 03:58:29;;;;;;;5.07;2.13;;;;;;;15.90;59.43;101031.84;4967891;28;20046;-84
2023/10/01 04:01:15;;;;;;;4.85;2.08;;;;;;;15.87;66.81;101029.19;4960357;28;20673;-83
2023/10/01 04:03:46;;;;;;;3.25;1.92;;;;;;;15.81;64.15;101026.50;4967870;28;20090;-82
2023/10/01 04:06:15;;;;;;;2.63;1.80;;;;;;;15.76;63.97;101023.84;4965442;28;20047;-82
2023/10/01 04:08:48;;;;;;;8.32;1.88;;;;;;;15.63;63.82;101007.13;4966362;28;20575;-83
2023/10/01 04:11:16;;;;;;;3.25;2.30;;;;;;;15.67;63.83;101021.97;4961382;28;20093;-83
2023/10/01 04:14:07;;;;;;;4.75;2.28;;;;;;;15.64;65.48;101029.72;4960068;28;20089;-82
2023/10/01 04:16:34;;;;;;;4.10;2.22;;;;;;;15.55;63.00;101027.00;4964337;28;20082;-83
2023/10/01 04:19:10;;;;;;;3.88;2.35;;;;;;;15.53;64.46;101036.56;4966477;28;20082;-82
2023/10/01 04:21:38;;;;;;;3.40;1.98;;;;;;;15.44;64.15;101026.00;4964877;28;20051;-82
2023/10/01 04:24:11;;;;;;;3.78;2.30;;;;;;;15.41;63.75;101025.94;4968068;28;20095;-83
2023/10/01 04:26:42;;;;;;;5.20;2.22;;;;;;;15.35;64.51;101028.47;4967118;28;20134;-82
2023/10/01 04:29:11;;;;;;;3.47;2.35;;;;;;;15.29;64.46;101026.63;4966105;28;20057;-81
2023/10/01 04:31:55;;;;;;;2.95;2.10;;;;;;;15.27;64.85;101034.44;4968423;28;20114;-81
2023/10/01 04:34:25;;;;;;;3.63;1.92;;;;;;;15.25;65.20;101030.91;4968971;28;20065;-82
2023/10/01 04:36:54;;;;;;;4.30;2.47;;;;;;;15.21;68.19;101026.53;4962286;28;20468;-81
2023/10/01 04:39:37;;;;;;;6.82;2.65;;;;;;;15.17;66.72;101034.28;4975684;28;20047;-82
2023/10/01 04:42:09;;;;;;;3.95;2.05;;;;;;;15.13;67.51;101030.75;4967481;28;20577;-84
2023/10/01 04:44:37;;;;;;;2.97;1.80;;;;;;;15.07;68.46;101025.44;4970806;28;20055;-81
2023/10/01 04:47:31;;;;;;;2.90;1.95;;;;;;;15.03;68.74;101032.34;4963514;28;20304;-82
2023/10/01 04:50:03;;;;;;;4.90;2.05;;;;;;;15.00;68.25;101039.22;4953078;28;20053;-85
2023/10/01 04:52:35;;;;;;;2.45;1.88;;;;;;;14.95;69.80;101020.03;4952775;28;20062;-81
2023/10/01 04:55:08;;;;;;;3.88;1.90;;;;;;;14.90;70.67;101029.53;4948407;28;20052;-82
2023/10/01 04:57:38;;;;;;;3.20;2.08;;;;;;;14.83;70.99;101032.00;4945456;28;20059;-82
2023/10/01 05:00:21;;;;;;;4.50;2.38;;;;;;;14.78;69.64;101049.31;4950744;29;20058;-81
2023/10/01 05:02:51;;;;;;;5.05;2.35;;;;;;;14.78;69.35;101041.50;4951865;28;20131;-82
2023/10/01 05:05:32;;;;;;;6.00;2.25;;;;;;;14.73;70.09;101050.97;4950331;28;20043;-82
2023/10/01 05:08:01;;;;;;;4.45;2.45;;;;;;;14.68;70.14;101049.97;4948497;29;20099;-81
2023/10/01 05:10:30;;;;;;;7.93;2.55;;;;;;;14.62;69.57;101048.16;4950245;28;20137;-81
2023/10/01 05:13:14;;;;;;;3.60;2.33;;;;;;;14.62;70.28;101047.28;4949022;28;20074;-82
2023/10/01 05:15:43;;;;;;;3.67;2.25;;;;;;;14.56;71.15;101044.56;4952059;28;20073;-83
2023/10/01 05:18:12;;;;;;;4.38;2.42;;;;;;;14.55;70.76;101050.63;4950038;28;20484;-83
2023/10/01 05:21:09;;;;;;;4.13;2.42;;;;;;;14.53;70.18;101057.50;4949628;28;20086;-83
2023/10/01 05:23:40;;;;;;;3.25;2.10;;;;;;;14.46;73.16;101046.97;4947051;29;20076;-83
2023/10/01 05:26:20;;;;;;;2.65;2.10;;;;;;;14.35;75.15;101048.50;4952998;28;20114;-83
2023/10/01 05:28:51;;;;;;;4.70;2.42;;;;;;;14.28;73.72;101049.25;4950540;28;20058;-82
2023/10/01 05:31:24;;;;;;;7.93;2.83;;;;;;;14.23;73.38;101058.69;4949523;28;20135;-83
2023/10/01 05:33:54;;;;;;;5.85;2.85;;;;;;;14.19;75.08;101057.75;4951276;28;20142;-83
2023/10/01 05:36:29;;;;;;;6.13;2.60;;;;;;;14.15;76.43;101061.13;4949725;29;20047;-81
2023/10/01 05:39:00;;;;;;;5.07;2.78;;;;;;;14.12;76.09;101075.81;4953713;28;20051;-81
2023/10/01 05:41:35;;;;;;;3.45;2.10;;;;;;;14.03;77.50;101074.78;4952126;29;20062;-81
2023/10/01 05:44:03;;;;;;;6.47;2.35;;;;;;;13.99;78.23;101075.53;4953589;28;20489;-82
2023/10/01 05:46:34;;;;;;;5.75;2.55;;;;;;;13.94;77.33;101071.09;4947917;28;20054;-81
2023/10/01 05:49:08;;;;;;;3.38;2.00;;;;;;;13.90;76.22;101069.28;4952517;28;20501;-81
2023/10/01 05:51:45;;;;;;;3.13;2.17;;;;;;;13.82;75.76;101071.72;4946576;29;20047;-82
2023/10/01 05:54:18;;;;;;;4.20;2.58;;;;;;;13.82;75.93;101076.94;4950283;28;20058;-82
2023/10/01 05:56:55;;;;;;;4.65;2.20;;;;;;;13.80;77.34;101078.63;4939744;29;20051;-83
2023/10/01 05:59:23;;;;;;;8.30;2.20;;;;;;;13.80;77.59;101074.28;4952350;28;20066;-83
2023/10/01 06:01:53;;;;;;;4.18;2.40;;;;;;;13.77;77.10;101066.44;4939597;28;20579;-83
2023/10/01 06:04:22;;;;;;;6.82;2.70;;;;;;;13.77;76.34;101070.75;4947300;28;20138;-82
2023/10/01 06:06:59;;;;;;;7.63;2.28;;;;;;;13.78;76.93;101075.97;4949880;28;20109;-81
2023/10/01 06:09:33;;;;;;;5.68;2.05;;;;;;;13.71;79.06;101061.09;4950914;28;20463;-81
2023/10/01 06:12:17;;;;;;;3.78;2.40;;;;;;;13.67;80.96;101069.66;4949261;28;20112;-81
2023/10/01 06:14:48;;;;;;;4.32;2.45;;;;;;;13.56;84.78;101068.53;4945727;28;20054;-82
2023/10/01 06:17:16;;;;;;;7.25;2.38;;;;;;;13.40;81.64;101073.41;4948061;28;20052;-83
2023/10/01 06:20:23;;;;;;;7.38;2.03;;;;;;;13.35;81.38;101068.94;4948280;28;20058;-82
2023/10/01 06:22:54;;;;;;;3.75;2.45;;;;;;;13.32;82.02;101071.47;4947826;28;20058;-82
2023/10/01 06:25:37;;;;;;;3.08;2.20;;;;;;;13.26;81.14;101071.28;4948064;28;20079;-82
2023/10/01 06:28:09;;;;;;;5.63;2.25;;;;;;;13.25;80.59;101074.75;4944534;28;20051;-80
2023/10/01 06:30:40;;;;;;;4.17;2.43;;;;;;;13.27;80.68;101078.25;4949630;28;20052;-82
2023/10/01 06:33:24;;;;;;;6.10;2.15;;;;;;;13.28;81.15;101080.91;4949333;28;20122;-81
2023/10/01 06:38:54;;;;;;;8.88;2.53;;;;;;;13.29;81.29;101090.47;4911215;28;20054;-83
2023/10/01 06:41:28;;;;;;;3.78;2.42;;;;;;;13.27;81.68;101101.66;4951019;28;20051;-81
2023/10/01 06:44:14;;;;;;;8.68;2.17;;;;;;;13.23;82.13;101089.41;4942658;28;20099;-82
2023/10/01 06:46:44;;;;;;;5.95;2.20;;;;;;;13.17;83.84;101091.03;4944377;28;20091;-80
2023/10/01 06:49:12;;;;;;;5.75;2.17;;;;;;;13.05;83.64;101088.13;4952310;28;20576;-81
2023/10/01 06:51:46;;;;;;;4.38;2.50;;;;;;;13.09;82.88;101091.69;4948422;28;20051;-81
2023/10/01 06:54:18;;;;;;;9.15;2.55;;;;;;;13.00;83.81;101097.53;4950268;28;20090;-81
2023/10/01 06:56:48;;;;;;;4.63;2.30;;;;;;;12.92;84.12;101096.47;4956346;28;20055;-82
2023/10/01 06:59:17;;;;;;;2.80;1.70;;;;;;;12.85;84.47;101102.31;4947247;28;20055;-82
2023/10/01 07:01:49;;;;;;;3.90;2.20;;;;;;;12.80;85.62;101102.22;4944631;28;20055;-79
2023/10/01 07:04:20;;;;;;;5.88;2.47;;;;;;;12.75;86.14;101101.22;4951865;28;20049;-82
2023/10/01 07:06:51;;;;;;;5.28;2.88;;;;;;;12.74;86.59;101102.94;4952491;28;20207;-81
2023/10/01 07:09:32;;;;;;;4.30;2.35;;;;;;;12.71;85.26;101105.47;4947803;28;20578;-82
2023/10/01 07:12:03;;;;;;;7.05;2.22;;;;;;;12.69;85.83;101104.53;4951002;28;20063;-81
2023/10/01 07:14:38;;;;;;;8.50;2.38;;;;;;;12.69;85.29;101109.72;4944085;28;20046;-81
2023/10/01 07:17:09;;;;;;;5.65;2.05;;;;;;;12.66;84.14;101111.34;4947465;28;20059;-81
2023/10/01 07:19:38;;;;;;;4.25;1.90;;;;;;;12.62;84.81;101113.00;4945637;28;20054;-80
2023/10/01 07:22:07;;;;;;;3.38;2.10;;;;;;;12.60;85.71;101125.06;4950232;28;20138;-80
2023/10/01 07:24:38;;;;;;;3.38;1.90;;;;;;;12.54;85.81;101127.50;4946860;28;20051;-81
2023/10/01 07:27:11;;;;;;;3.50;2.15;;;;;;;12.53;86.68;101123.16;4945830;28;20524;-81
2023/10/01 07:29:41;;;;;;;8.38;2.38;;;;;;;12.53;87.90;101128.34;4948128;28;20051;-80
2023/10/01 07:32:12;;;;;;;7.30;2.25;;;;;;;12.48;88.63;101123.00;4950292;28;20043;-82
2023/10/01 07:34:42;;;;;;;4.38;2.47;;;;;;;12.48;88.11;101127.31;4948486;28;20051;-81
2023/10/01 07:37:23;;;;;;;3.30;2.08;;;;;;;12.48;87.51;101116.94;4949582;28;20110;-80
2023/10/01 07:39:55;;;;;;;7.25;2.58;;;;;;;12.39;88.72;101122.72;4945443;28;20066;-81
2023/10/01 07:42:46;;;;;;;6.13;2.08;;;;;;;12.34;88.10;101119.13;4946697;28;20055;-81
2023/10/01 07:45:16;;;;;;;5.10;2.20;;;;;;;12.33;86.86;101115.66;4943516;28;20109;-81
2023/10/01 07:47:49;;;;;;;4.40;2.35;;;;;;;12.32;87.61;101113.94;4950271;28;20063;-81
2023/10/01 07:50:18;;;;;;;3.63;1.98;;;;;;;12.31;86.27;101119.94;4947050;28;20047;-82
2023/10/01 07:53:03;;;;;;;5.18;2.40;;;;;;;12.29;86.37;101120.72;4951370;28;20047;-82
2023/10/01 07:55:36;;;;;;;3.47;2.15;;;;;;;12.27;86.05;101125.88;4951147;28;20040;-82
2023/10/01 07:58:23;;;;;;;4.55;2.10;;;;;;;12.22;86.23;101113.63;4951506;28;20050;-82
2023/10/01 08:01:32;;;;;;;4.32;2.00;;;;;;;12.19;86.82;101119.59;4952471;28;20039;-82
2023/10/01 08:03:55;;;;;;;4.25;2.28;;;;;;;12.16;85.88;101124.69;4943571;28;20574;-83
2023/10/01 08:06:29;;;;;;;5.47;2.15;;;;;;;12.06;87.91;101127.84;4946735;28;21164;-82
2023/10/01 08:09:12;;;;;;;5.47;2.65;;;;;;;12.00;89.36;101120.75;4936708;28;20260;-82
2023/10/01 08:12:00;;;;;;;;;;;;;;;12.00;89.08;101128.53;4948789;28;20433;-82
2023/10/01 08:14:34;;;;;;;3.13;2.22;;;;;;;11.97;88.78;101133.66;4950316;28;20058;-83
2023/10/01 08:17:02;;;;;;;4.82;2.50;;;;;;;11.93;88.68;101131.78;4952708;28;20706;-82
2023/10/01 08:19:44;;;;;;;3.55;2.15;;;;;;;11.91;88.66;101129.16;4949440;28;20062;-83
2023/10/01 08:22:14;;;;;;;3.27;2.00;;;;;;;11.89;88.13;101132.56;4949053;28;20051;-81
2023/10/01 08:24:45;;;;;;;8.52;2.45;;;;;;;11.87;88.24;101137.69;4947372;28;20051;-83
2023/10/01 08:27:29;;;;;;;3.22;2.30;;;;;;;11.82;89.30;101139.22;4951143;28;20380;-82
2023/10/01 08:30:18;;;;;;;4.25;2.03;;;;;;;11.78;89.01;101139.97;4957198;28;20138;-83
2023/10/01 08:32:49;;;;;;;5.68;1.92;;;;;;;11.67;89.87;101141.34;4951656;28;20055;-83
2023/10/01 08:35:23;;;;;;;6.38;2.15;;;;;;;11.66;90.89;101152.53;4954612;28;20054;-81
2023/10/01 08:37:59;;;;;;;3.72;2.00;;;;;;;11.64;90.75;101154.22;4952600;28;20134;-81
2023/10/01 08:40:41;;;;;;;4.57;2.08;;;;;;;11.61;90.55;101152.38;4950292;28;20051;-83
2023/10/01 08:43:22;;;;;;;4.63;2.90;;;;;;;11.55;91.61;101147.03;4949021;28;20506;-82
2023/10/01 08:45:52;;;;;;;3.63;2.35;;;;;;;11.47;91.88;101161.44;4954383;28;20086;-81
2023/10/01 08:48:21;;;;;;;6.88;2.13;;;;;;;11.43;91.77;101147.50;4952244;28;20059;-83
2023/10/01 08:50:51;;;;;;;3.22;1.92;;;;;;;11.42;92.31;101147.44;4950995;28;20082;-82
2023/10/01 08:53:24;;;;;;;7.15;2.47;;;;;;;11.43;92.05;101152.69;4954512;28;20059;-83
2023/10/01 08:56:13;;;;;;;3.85;2.10;;;;;;;11.43;91.95;101155.28;4952732;28;20047;-83
2023/10/01 08:58:50;;;;;;;3.70;2.40;;;;;;;11.44;92.36;101162.22;4950524;28;20043;-83
2023/10/01 09:01:21;;;;;;;8.73;2.83;;;;;;;11.43;92.21;101160.47;4949168;28;20094;-83
2023/10/01 09:03:52;;;;;;;3.75;2.08;;;;;;;11.40;91.89;101168.13;4951501;28;20058;-83
2023/10/01 09:06:27;;;;;;;5.25;2.72;;;;;;;11.34;92.85;101162.75;4949482;28;20095;-83
2023/10/01 09:08:59;;;;;;;3.00;2.10;;;;;;;11.33;92.71;101174.81;4951714;28;20058;-82
2023/10/01 09:11:43;;;;;;;5.07;1.77;;;;;;;11.32;92.33;101162.69;4949213;28;20043;-82
2023/10/01 09:14:19;;;;;;;5.00;2.78;;;;;;;11.33;92.27;101166.16;4955223;28;20063;-81
2023/10/01 09:16:57;;;;;;;4.45;2.15;;;;;;;11.30;91.21;101163.47;4944736;28;20055;-81
2023/10/01 09:19:34;;;;;;;3.20;2.20;;;;;;;11.30;91.87;101168.66;4950479;28;20525;-81
2023/10/01 09:22:15;;;;;;;3.40;2.42;;;;;;;11.26;91.36;101175.44;4948582;28;20051;-81
2023/10/01 09:24:55;;;;;;;4.97;2.67;;;;;;;11.23;93.10;101171.88;4952638;28;20110;-81
2023/10/01 09:27:28;;;;;;;3.38;1.95;;;;;;;11.22;93.88;101176.16;4953517;28;20058;-81
2023/10/01 09:32:54;;;;;;;3.40;2.08;;;;;;;11.17;92.91;101177.72;4952543;28;20157;-81
2023/10/01 09:35:38;;;;;;;3.85;2.30;;;;;;;11.15;92.81;101176.78;4949712;28;20055;-80
2023/10/01 09:38:18;;;;;;;3.33;2.17;;;;;;;11.13;92.40;101168.09;4948575;28;20387;-81
2023/10/01 09:40:51;;;;;;;5.93;2.25;;;;;;;11.10;92.60;101166.28;4950762;28;20059;-81
2023/10/01 09:43:24;;;;;;;5.03;2.60;;;;;;;11.11;93.60;101173.22;4950578;28;20083;-80
2023/10/01 09:45:57;;;;;;;2.72;1.60;;;;;;;11.11;93.08;101173.22;4953327;28;20055;-81
2023/10/01 09:48:37;;;;;;;8.18;2.08;;;;;;;11.13;93.31;101181.03;4949311;28;20536;-81
2023/10/01 09:51:15;;;;;;;5.10;2.05;;;;;;;11.08;91.84;101183.47;4947427;28;20046;-81
2023/10/01 09:53:47;;;;;;;4.47;2.80;;;;;;;11.03;92.59;101179.84;4950701;28;20101;-80
2023/10/01 09:56:26;;;;;;;4.80;2.47;;;;;;;10.99;92.08;101170.19;4954469;28;20047;-82
2023/10/01 09:59:03;;;;;;;3.40;2.28;;;;;;;10.90;92.50;101172.47;4952478;28;20122;-83
2023/10/01 10:01:35;;;;;;;5.47;2.35;;;;;;;10.88;93.55;101172.44;4954752;28;20059;-82
2023/10/01 10:04:06;;;;;;;8.00;2.55;;;;;;;10.86;92.94;101170.63;4950211;28;20051;-82
2023/10/01 10:06:38;;;;;;;5.55;1.90;;;;;;;10.88;92.43;101168.94;4949511;28;20046;-81
2023/10/01 10:09:10;;;;;;;9.90;2.40;;;;;;;10.87;93.48;101168.06;4951043;28;20053;-81
2023/10/01 10:11:40;;;;;;;5.32;2.10;;;;;;;10.87;94.04;101177.56;4949134;28;20129;-81
2023/10/01 10:14:58;;;;;;;4.78;2.78;;;;;;;10.86;94.08;101174.09;4949668;28;20042;-81
2023/10/01 10:17:38;;;;;;;6.22;2.60;;;;;;;10.85;94.08;101168.84;4935690;28;20508;-81
2023/10/01 10:23:21;;;;;;;6.68;2.40;;;;;;;10.84;95.04;101167.97;4941475;28;20046;-82
2023/10/01 10:25:50;;;;;;;5.35;2.08;;;;;;;10.83;94.69;101167.91;4952354;28;20055;-82
2023/10/01 10:28:29;;;;;;;2.83;1.83;;;;;;;10.76;93.37;101159.06;4949706;28;20054;-81
2023/10/01 10:31:32;;;;;;;4.10;1.90;;;;;;;10.73;93.30;101168.44;4944875;28;20071;-81
2023/10/01 10:34:24;;;;;;;3.00;2.33;;;;;;;10.72;93.65;101174.41;4942506;28;20560;-80
2023/10/01 10:36:58;;;;;;;3.63;2.15;;;;;;;10.70;93.84;101176.97;4949681;28;20051;-80
2023/10/01 10:40:28;;;;;;;4.47;2.63;;;;;;;10.71;94.22;101167.50;4956093;28;20055;-79
2023/10/01 10:43:19;;;;;;;4.82;2.28;;;;;;;10.67;94.20;101170.00;4948982;28;20497;-83
2023/10/01 10:46:09;;;;;;;5.45;2.58;;;;;;;10.64;93.94;101172.44;4947912;28;20596;-81
2023/10/01 10:49:06;;;;;;;4.07;1.95;;;;;;;10.56;93.70;101163.53;4953317;28;20142;-78
2023/10/01 10:51:50;;;;;;;4.53;1.95;;;;;;;10.53;94.91;101165.13;4892417;28;20055;-80
2023/10/01 10:54:32;;;;;;;4.55;2.28;;;;;;;10.50;94.47;101159.84;4944732;29;20043;-80
2023/10/01 10:57:04;;;;;;;3.75;2.15;;;;;;;10.46;94.33;101164.03;4947498;28;20085;-80
2023/10/01 10:59:35;;;;;;;4.43;1.88;;;;;;;10.45;95.29;101165.72;4947305;28;20051;-80
2023/10/01 11:02:07;;;;;;;5.00;2.13;;;;;;;10.44;94.78;101166.53;4948081;28;20055;-80
2023/10/01 11:04:41;;;;;;;8.98;2.10;;;;;;;10.42;94.83;101159.56;4946880;28;20047;-79
2023/10/01 11:07:13;;;;;;;4.05;2.00;;;;;;;10.41;94.95;101166.44;4949113;28;20043;-80
2023/10/01 11:09:45;;;;;;;6.47;2.55;;;;;;;10.39;94.25;101164.63;4953751;28;20478;-79
2023/10/01 11:12:21;;;;;;;4.10;2.25;;;;;;;10.37;93.34;101169.72;4949224;28;20055;-79
2023/10/01 11:15:19;;;;;;;5.22;2.40;;;;;;;10.32;92.16;101166.09;4947013;28;20064;-80
2023/10/01 11:17:47;;;;;;;6.88;2.50;;;;;;;10.26;93.13;101166.72;4946180;28;20520;-80
2023/10/01 11:20:22;;;;;;;4.82;1.83;;;;;;;10.23;93.24;101163.13;4951635;28;20051;-80
2023/10/01 11:22:55;;;;;;;6.13;2.30;;;;;;;10.27;91.96;101168.47;4948125;28;20137;-80
2023/10/01 11:25:27;;;;;;;5.25;2.25;;;;;;;10.22;92.68;101177.78;4945355;28;20059;-79
2023/10/01 11:28:04;;;;;;;5.53;2.35;;;;;;;10.22;93.52;101170.03;4949388;28;20047;-79
2023/10/01 11:30:42;;;;;;;4.97;2.15;;;;;;;10.22;93.92;101180.38;4956463;28;20051;-80
2023/10/01 11:33:29;;;;;;;5.53;2.33;;;;;;;10.22;94.01;101182.97;4950291;28;20499;-80
2023/10/01 11:36:06;;;;;;;4.03;2.50;;;;;;;10.22;93.76;101185.53;4942718;28;20047;-79
2023/10/01 11:38:45;;;;;;;4.35;1.75;;;;;;;10.20;93.26;101181.13;4947851;28;20066;-80
2023/10/01 11:41:13;;;;;;;5.13;2.60;;;;;;;10.19;93.53;101185.44;4946574;29;20131;-79
2023/10/01 11:43:45;;;;;;;10.70;2.40;;;;;;;10.11;93.83;101184.25;4947689;28;20047;-80
2023/10/01 11:46:22;;;;;;;4.20;2.20;;;;;;;10.02;96.45;101186.47;4949598;28;20054;-80
2023/10/01 11:49:06;;;;;;;5.32;2.35;;;;;;;9.99;96.07;101191.53;4944897;28;20216;-80
2023/10/01 11:51:48;;;;;;;3.13;2.10;;;;;;;9.99;95.27;101195.00;4949421;28;20113;-80
2023/10/01 11:54:19;;;;;;;3.08;2.15;;;;;;;10.00;95.23;101190.72;4945148;28;20083;-80
2023/10/01 11:57:04;;;;;;;4.78;2.50;;;;;;;9.98;95.07;101198.41;4949552;28;20169;-80
2023/10/01 11:59:33;;;;;;;2.65;1.67;;;;;;;9.95;94.81;101195.69;4945468;28;20520;-79
2023/10/01 12:02:18;;;;;;;4.85;2.22;;;;;;;9.92;95.35;101197.28;4948032;28;20098;-79
2023/10/01 12:04:51;;;;;;;3.50;1.75;;;;;;;9.91;94.73;101193.81;4947010;28;20066;-79
2023/10/01 12:07:18;;;;;;;;;;;;;;;9.92;94.70;101202.44;4946743;28;20051;-80
2023/10/01 12:09:57;;;;;;;5.47;2.58;;;;;;;9.92;94.91;101210.19;4950553;28;20383;-80
2023/10/01 12:12:27;;;;;;;4.15;2.05;;;;;;;9.91;94.11;101198.09;4945638;28;20057;-80
2023/10/01 12:14:56;;;;;;;4.70;2.45;;;;;;;9.89;94.14;101200.63;4948806;28;20055;-80
2023/10/01 12:17:26;;;;;;;11.50;2.70;;;;;;;9.88;95.16;101203.16;4937273;28;20111;-79
2023/10/01 12:19:57;;;;;;;3.42;2.00;;;;;;;9.86;95.58;101196.22;4947902;28;20047;-79
2023/10/01 12:22:29;;;;;;;6.38;2.13;;;;;;;9.85;94.10;101199.63;4947719;29;20054;-79
2023/10/01 12:25:01;;;;;;;3.67;2.45;;;;;;;9.78;95.40;101200.22;4949446;28;20051;-80
2023/10/01 12:27:41;;;;;;;4.95;2.40;;;;;;;9.76;95.80;101211.31;4940041;29;20063;-80